• Join FlightAware (Why Join?)
  • Login
  • US Flag 
04:05PM EDT


 

Airport Tracker/Info


-or-


 

Live Flight TrackerFlight Track Log ✈ AMF1694 ✈ 17-04-2014 ✈ KBIE - KHSI

Flight Track Log - Related Links

Times and Time Zones

All times are in EDT time to prevent confusion due to time zone crossing. See the AMF1694 flight status page for this flight to view local times or setup timezone preferences in your user account.

Time Position Orientation Groundspeed Altitude Reporting Facility
EDT Latitude Longitude Course Direction KTS MPH feet Rate Location/Type
08:35AM 40.3581 -97.0125 285° West 165 190 5,700  Level Minneapolis Center
08:36AM 40.3769 -97.0850 289° West 168 193 6,000 120 Climbing Minneapolis Center
08:37AM 40.3588 -97.0875 278° West  Level FlightAware Approximate
08:38AM 40.3657 -97.1565 277° West  Level FlightAware Approximate
08:38AM 40.3903 -97.1547 284° West 189 217 6,000  Level Minneapolis Center
08:39AM 40.3787 -97.2239 285° West  Level FlightAware Approximate
08:39AM 40.4100 -97.2194 292° West 190 219 6,000  Level Minneapolis Center
08:40AM 40.3928 -97.2911 285° West  Level FlightAware Approximate
08:40AM 40.4208 -97.2850 282° West 189 217 6,000  Level Minneapolis Center
08:41AM 40.4297 -97.3453 281° West 183 211 6,000  Level Minneapolis Center
08:42AM 40.4472 -97.4200 287° West 182 209 6,000 -60 Level Minneapolis Center
08:43AM 40.4650 -97.4817 291° West 181 208 5,900  Descending Minneapolis Center
08:44AM 40.4825 -97.5428 291° West 181 208 6,000  Climbing Minneapolis Center
08:45AM 40.4969 -97.6058 287° West 181 208 6,000  Level Minneapolis Center
08:46AM 40.4975 -97.6722 271° West 181 208 6,000  Level Minneapolis Center
08:47AM 40.4958 -97.7378 268° West 179 206 6,000 -60 Level Minneapolis Center
08:48AM 40.4903 -97.8067 264° West 184 212 5,900 -60 Descending Minneapolis Center
08:49AM 40.4908 -97.8725 271° West 185 213 5,900 -60 Level Minneapolis Center
08:50AM 40.4864 -97.9397 265° West 185 213 5,800  Descending Minneapolis Center
08:51AM 40.4794 -98.0050 262° West 184 212 5,900 -660 Climbing Minneapolis Center
08:52AM 40.4764 -98.0928 267° West 189 217 4,500 -840 Descending Minneapolis Center
08:53AM 40.4686 -98.1706 263° West 201 231 4,200 -240 Descending Minneapolis Center
08:54AM 40.4700 -98.2394 272° West 202 232 4,100 -300 Descending Minneapolis Center
08:55AM 40.4939 -98.2992 298° West 189 217 3,700 -420 Descending Minneapolis Center